sensor_id;sensor_type;location;lat;lon;timestamp;temperature;humidity
57636;DHT22;43465;50.728;4.160;2023-06-10T00:01:41;23.70;71.90
57636;DHT22;43465;50.728;4.160;2023-06-10T00:04:08;23.70;71.80
57636;DHT22;43465;50.728;4.160;2023-06-10T00:06:34;23.70;71.90
57636;DHT22;43465;50.728;4.160;2023-06-10T00:09:06;23.50;72.10
57636;DHT22;43465;50.728;4.160;2023-06-10T00:11:36;23.50;72.40
57636;DHT22;43465;50.728;4.160;2023-06-10T00:14:03;23.60;72.80
57636;DHT22;43465;50.728;4.160;2023-06-10T00:16:32;23.40;72.80
57636;DHT22;43465;50.728;4.160;2023-06-10T00:18:59;23.50;72.90
57636;DHT22;43465;50.728;4.160;2023-06-10T00:21:35;23.50;73.00
57636;DHT22;43465;50.728;4.160;2023-06-10T00:24:06;23.60;73.00
57636;DHT22;43465;50.728;4.160;2023-06-10T00:26:32;23.50;73.20
57636;DHT22;43465;50.728;4.160;2023-06-10T00:28:58;23.40;73.80
57636;DHT22;43465;50.728;4.160;2023-06-10T00:31:24;23.50;73.50
57636;DHT22;43465;50.728;4.160;2023-06-10T00:33:51;23.50;73.70
57636;DHT22;43465;50.728;4.160;2023-06-10T00:36:17;23.40;74.10
57636;DHT22;43465;50.728;4.160;2023-06-10T00:38:43;23.40;74.10
57636;DHT22;43465;50.728;4.160;2023-06-10T00:41:08;23.40;74.10
57636;DHT22;43465;50.728;4.160;2023-06-10T00:43:34;23.40;74.40
57636;DHT22;43465;50.728;4.160;2023-06-10T00:46:00;23.30;75.20
57636;DHT22;43465;50.728;4.160;2023-06-10T00:48:27;23.20;75.10
57636;DHT22;43465;50.728;4.160;2023-06-10T00:50:53;23.30;75.00
57636;DHT22;43465;50.728;4.160;2023-06-10T00:53:19;23.30;75.10
57636;DHT22;43465;50.728;4.160;2023-06-10T00:55:46;23.20;75.30
57636;DHT22;43465;50.728;4.160;2023-06-10T00:58:12;23.10;75.60
57636;DHT22;43465;50.728;4.160;2023-06-10T01:00:38;23.00;76.00
57636;DHT22;43465;50.728;4.160;2023-06-10T01:03:04;23.00;76.00
57636;DHT22;43465;50.728;4.160;2023-06-10T01:05:37;23.00;75.90
57636;DHT22;43465;50.728;4.160;2023-06-10T01:10:57;23.00;76.50
57636;DHT22;43465;50.728;4.160;2023-06-10T01:13:25;23.00;76.30
57636;DHT22;43465;50.728;4.160;2023-06-10T01:15:54;23.00;76.10
57636;DHT22;43465;50.728;4.160;2023-06-10T01:18:23;23.00;76.40
57636;DHT22;43465;50.728;4.160;2023-06-10T01:20:49;22.90;76.50
57636;DHT22;43465;50.728;4.160;2023-06-10T01:23:15;22.90;76.60
57636;DHT22;43465;50.728;4.160;2023-06-10T01:25:47;22.90;76.60
57636;DHT22;43465;50.728;4.160;2023-06-10T01:28:33;22.80;76.90
57636;DHT22;43465;50.728;4.160;2023-06-10T01:31:09;22.70;77.50
57636;DHT22;43465;50.728;4.160;2023-06-10T01:33:42;22.70;77.90
57636;DHT22;43465;50.728;4.160;2023-06-10T01:36:08;22.60;77.30
57636;DHT22;43465;50.728;4.160;2023-06-10T01:38:40;22.60;77.70
57636;DHT22;43465;50.728;4.160;2023-06-10T01:41:06;22.60;77.50
57636;DHT22;43465;50.728;4.160;2023-06-10T01:43:34;22.50;77.40
57636;DHT22;43465;50.728;4.160;2023-06-10T01:46:00;22.50;77.80
57636;DHT22;43465;50.728;4.160;2023-06-10T01:48:26;22.50;78.20
57636;DHT22;43465;50.728;4.160;2023-06-10T01:50:52;22.50;77.50
57636;DHT22;43465;50.728;4.160;2023-06-10T01:53:19;22.60;77.10
57636;DHT22;43465;50.728;4.160;2023-06-10T01:55:44;22.60;77.30
57636;DHT22;43465;50.728;4.160;2023-06-10T01:58:10;22.50;77.00
57636;DHT22;43465;50.728;4.160;2023-06-10T02:00:35;22.40;77.40
57636;DHT22;43465;50.728;4.160;2023-06-10T02:03:01;22.40;78.10
57636;DHT22;43465;50.728;4.160;2023-06-10T02:05:27;22.40;77.90
57636;DHT22;43465;50.728;4.160;2023-06-10T02:07:52;22.40;77.60
57636;DHT22;43465;50.728;4.160;2023-06-10T02:10:18;22.50;77.40
57636;DHT22;43465;50.728;4.160;2023-06-10T02:12:43;22.40;77.70
57636;DHT22;43465;50.728;4.160;2023-06-10T02:15:09;22.30;78.00
57636;DHT22;43465;50.728;4.160;2023-06-10T02:17:35;22.20;78.00
57636;DHT22;43465;50.728;4.160;2023-06-10T02:20:01;22.10;78.20
57636;DHT22;43465;50.728;4.160;2023-06-10T02:22:31;22.10;78.60
57636;DHT22;43465;50.728;4.160;2023-06-10T02:24:57;22.10;78.80
57636;DHT22;43465;50.728;4.160;2023-06-10T02:27:23;22.10;79.10
57636;DHT22;43465;50.728;4.160;2023-06-10T02:29:49;22.10;78.50
57636;DHT22;43465;50.728;4.160;2023-06-10T02:32:14;22.10;78.70
57636;DHT22;43465;50.728;4.160;2023-06-10T02:34:40;22.00;79.40
57636;DHT22;43465;50.728;4.160;2023-06-10T02:37:08;22.00;79.30
57636;DHT22;43465;50.728;4.160;2023-06-10T02:39:33;22.00;79.60
57636;DHT22;43465;50.728;4.160;2023-06-10T02:41:59;22.00;79.80
57636;DHT22;43465;50.728;4.160;2023-06-10T02:44:25;21.90;80.20
57636;DHT22;43465;50.728;4.160;2023-06-10T02:46:51;21.90;81.30
57636;DHT22;43465;50.728;4.160;2023-06-10T02:49:19;21.90;80.00
57636;DHT22;43465;50.728;4.160;2023-06-10T02:51:45;21.80;81.20
57636;DHT22;43465;50.728;4.160;2023-06-10T02:54:11;21.80;80.60
57636;DHT22;43465;50.728;4.160;2023-06-10T02:56:36;21.90;80.50
57636;DHT22;43465;50.728;4.160;2023-06-10T02:59:02;21.80;80.60
57636;DHT22;43465;50.728;4.160;2023-06-10T03:01:28;21.70;80.80
57636;DHT22;43465;50.728;4.160;2023-06-10T03:03:53;21.70;81.10
57636;DHT22;43465;50.728;4.160;2023-06-10T03:06:21;21.80;81.00
57636;DHT22;43465;50.728;4.160;2023-06-10T03:08:49;21.70;81.30
57636;DHT22;43465;50.728;4.160;2023-06-10T03:11:15;21.70;81.20
57636;DHT22;43465;50.728;4.160;2023-06-10T03:13:41;21.80;81.10
57636;DHT22;43465;50.728;4.160;2023-06-10T03:16:06;21.80;80.70
57636;DHT22;43465;50.728;4.160;2023-06-10T03:18:33;21.80;80.90
57636;DHT22;43465;50.728;4.160;2023-06-10T03:20:58;21.70;81.30
57636;DHT22;43465;50.728;4.160;2023-06-10T03:23:24;21.70;81.00
57636;DHT22;43465;50.728;4.160;2023-06-10T03:25:53;21.70;81.10
57636;DHT22;43465;50.728;4.160;2023-06-10T03:28:20;21.70;81.70
57636;DHT22;43465;50.728;4.160;2023-06-10T03:30:47;21.70;81.80
57636;DHT22;43465;50.728;4.160;2023-06-10T03:33:13;21.70;82.20
57636;DHT22;43465;50.728;4.160;2023-06-10T03:35:39;21.60;82.40
57636;DHT22;43465;50.728;4.160;2023-06-10T03:38:05;21.70;82.50
57636;DHT22;43465;50.728;4.160;2023-06-10T03:40:31;21.60;82.20
57636;DHT22;43465;50.728;4.160;2023-06-10T03:42:57;21.60;82.40
57636;DHT22;43465;50.728;4.160;2023-06-10T03:45:23;21.50;82.60
57636;DHT22;43465;50.728;4.160;2023-06-10T03:47:49;21.40;82.90
57636;DHT22;43465;50.728;4.160;2023-06-10T03:50:16;21.40;83.30
57636;DHT22;43465;50.728;4.160;2023-06-10T03:52:41;21.30;83.70
57636;DHT22;43465;50.728;4.160;2023-06-10T03:55:09;21.20;83.80
57636;DHT22;43465;50.728;4.160;2023-06-10T03:57:36;21.20;84.30
57636;DHT22;43465;50.728;4.160;2023-06-10T04:00:02;21.20;84.90
57636;DHT22;43465;50.728;4.160;2023-06-10T04:02:35;21.20;84.80
57636;DHT22;43465;50.728;4.160;2023-06-10T04:05:02;21.20;84.50
57636;DHT22;43465;50.728;4.160;2023-06-10T04:07:27;21.20;84.30
57636;DHT22;43465;50.728;4.160;2023-06-10T04:09:53;21.20;84.50
57636;DHT22;43465;50.728;4.160;2023-06-10T04:12:19;21.10;84.80
57636;DHT22;43465;50.728;4.160;2023-06-10T04:14:45;21.10;85.00
57636;DHT22;43465;50.728;4.160;2023-06-10T04:17:10;21.10;85.10
57636;DHT22;43465;50.728;4.160;2023-06-10T04:19:36;21.10;85.00
57636;DHT22;43465;50.728;4.160;2023-06-10T04:22:02;21.10;85.50
57636;DHT22;43465;50.728;4.160;2023-06-10T04:24:29;21.00;85.60
57636;DHT22;43465;50.728;4.160;2023-06-10T04:26:55;21.00;85.30
57636;DHT22;43465;50.728;4.160;2023-06-10T04:29:20;21.00;85.80
57636;DHT22;43465;50.728;4.160;2023-06-10T04:31:46;21.00;85.70
57636;DHT22;43465;50.728;4.160;2023-06-10T04:34:12;21.00;86.00
57636;DHT22;43465;50.728;4.160;2023-06-10T04:36:38;21.10;85.80
57636;DHT22;43465;50.728;4.160;2023-06-10T04:39:03;21.10;86.00
57636;DHT22;43465;50.728;4.160;2023-06-10T04:41:31;21.20;86.10
57636;DHT22;43465;50.728;4.160;2023-06-10T04:43:57;21.20;86.30
57636;DHT22;43465;50.728;4.160;2023-06-10T04:46:23;21.30;86.30
57636;DHT22;43465;50.728;4.160;2023-06-10T04:48:49;21.40;86.00
57636;DHT22;43465;50.728;4.160;2023-06-10T04:51:15;21.40;86.00
57636;DHT22;43465;50.728;4.160;2023-06-10T04:53:42;21.40;86.40
57636;DHT22;43465;50.728;4.160;2023-06-10T04:56:07;21.40;85.80
57636;DHT22;43465;50.728;4.160;2023-06-10T04:58:33;21.50;86.30
57636;DHT22;43465;50.728;4.160;2023-06-10T05:00:59;21.50;86.80
57636;DHT22;43465;50.728;4.160;2023-06-10T05:03:26;21.60;86.80
57636;DHT22;43465;50.728;4.160;2023-06-10T05:05:51;21.60;86.80
57636;DHT22;43465;50.728;4.160;2023-06-10T05:08:17;21.60;86.80
57636;DHT22;43465;50.728;4.160;2023-06-10T05:10:43;21.60;86.50
57636;DHT22;43465;50.728;4.160;2023-06-10T05:13:09;21.60;86.90
57636;DHT22;43465;50.728;4.160;2023-06-10T05:15:34;21.70;86.90
57636;DHT22;43465;50.728;4.160;2023-06-10T05:18:00;21.80;86.70
57636;DHT22;43465;50.728;4.160;2023-06-10T05:20:28;21.90;86.40
57636;DHT22;43465;50.728;4.160;2023-06-10T05:22:54;22.00;86.80
57636;DHT22;43465;50.728;4.160;2023-06-10T05:25:20;22.00;86.60
57636;DHT22;43465;50.728;4.160;2023-06-10T05:27:45;22.10;86.50
57636;DHT22;43465;50.728;4.160;2023-06-10T05:30:11;22.10;87.50
57636;DHT22;43465;50.728;4.160;2023-06-10T05:32:37;22.10;87.10
57636;DHT22;43465;50.728;4.160;2023-06-10T05:35:03;22.30;87.50
57636;DHT22;43465;50.728;4.160;2023-06-10T05:37:30;22.30;87.50
57636;DHT22;43465;50.728;4.160;2023-06-10T05:39:55;22.30;87.80
57636;DHT22;43465;50.728;4.160;2023-06-10T05:42:21;22.40;87.50
57636;DHT22;43465;50.728;4.160;2023-06-10T05:44:47;22.50;88.00
57636;DHT22;43465;50.728;4.160;2023-06-10T05:47:12;22.50;88.20
57636;DHT22;43465;50.728;4.160;2023-06-10T05:49:38;22.60;88.20
57636;DHT22;43465;50.728;4.160;2023-06-10T05:52:04;22.70;88.40
57636;DHT22;43465;50.728;4.160;2023-06-10T05:54:30;22.80;88.00
57636;DHT22;43465;50.728;4.160;2023-06-10T05:56:56;22.90;88.00
57636;DHT22;43465;50.728;4.160;2023-06-10T05:59:21;22.90;88.20
57636;DHT22;43465;50.728;4.160;2023-06-10T06:01:48;23.00;88.20
57636;DHT22;43465;50.728;4.160;2023-06-10T06:04:15;23.00;87.70
57636;DHT22;43465;50.728;4.160;2023-06-10T06:06:41;23.10;87.70
57636;DHT22;43465;50.728;4.160;2023-06-10T06:09:06;23.20;87.50
57636;DHT22;43465;50.728;4.160;2023-06-10T06:11:34;23.30;86.60
57636;DHT22;43465;50.728;4.160;2023-06-10T06:13:59;23.30;85.90
57636;DHT22;43465;50.728;4.160;2023-06-10T06:16:25;23.30;85.80
57636;DHT22;43465;50.728;4.160;2023-06-10T06:18:51;23.40;85.60
57636;DHT22;43465;50.728;4.160;2023-06-10T06:21:16;23.50;86.60
57636;DHT22;43465;50.728;4.160;2023-06-10T06:23:42;23.60;84.20
57636;DHT22;43465;50.728;4.160;2023-06-10T06:26:07;23.70;85.30
57636;DHT22;43465;50.728;4.160;2023-06-10T06:28:33;23.80;85.50
57636;DHT22;43465;50.728;4.160;2023-06-10T06:30:59;23.90;85.90
57636;DHT22;43465;50.728;4.160;2023-06-10T06:33:24;24.00;85.40
57636;DHT22;43465;50.728;4.160;2023-06-10T06:35:51;24.00;83.10
57636;DHT22;43465;50.728;4.160;2023-06-10T06:38:17;24.00;83.00
57636;DHT22;43465;50.728;4.160;2023-06-10T06:40:43;23.90;81.40
57636;DHT22;43465;50.728;4.160;2023-06-10T06:43:08;24.00;82.70
57636;DHT22;43465;50.728;4.160;2023-06-10T06:45:34;24.10;80.20
57636;DHT22;43465;50.728;4.160;2023-06-10T06:48:00;24.10;78.20
57636;DHT22;43465;50.728;4.160;2023-06-10T06:50:25;24.20;79.50
57636;DHT22;43465;50.728;4.160;2023-06-10T06:52:51;24.20;81.10
57636;DHT22;43465;50.728;4.160;2023-06-10T06:55:17;24.30;78.70
57636;DHT22;43465;50.728;4.160;2023-06-10T06:57:42;24.30;76.90
57636;DHT22;43465;50.728;4.160;2023-06-10T07:00:08;24.40;77.60
57636;DHT22;43465;50.728;4.160;2023-06-10T07:02:35;24.50;78.40
57636;DHT22;43465;50.728;4.160;2023-06-10T07:05:01;24.60;78.20
57636;DHT22;43465;50.728;4.160;2023-06-10T07:07:27;24.60;77.80
57636;DHT22;43465;50.728;4.160;2023-06-10T07:09:52;24.80;78.00
57636;DHT22;43465;50.728;4.160;2023-06-10T07:12:18;24.80;79.10
57636;DHT22;43465;50.728;4.160;2023-06-10T07:14:44;24.90;79.00
57636;DHT22;43465;50.728;4.160;2023-06-10T07:17:10;25.00;77.30
57636;DHT22;43465;50.728;4.160;2023-06-10T07:19:35;25.10;75.50
57636;DHT22;43465;50.728;4.160;2023-06-10T07:22:04;25.10;74.30
57636;DHT22;43465;50.728;4.160;2023-06-10T07:24:30;25.20;75.10
57636;DHT22;43465;50.728;4.160;2023-06-10T07:26:55;25.40;75.20
57636;DHT22;43465;50.728;4.160;2023-06-10T07:29:21;25.50;74.80
57636;DHT22;43465;50.728;4.160;2023-06-10T07:31:46;25.60;73.80
57636;DHT22;43465;50.728;4.160;2023-06-10T07:34:12;25.80;74.90
57636;DHT22;43465;50.728;4.160;2023-06-10T07:36:38;25.80;71.80
57636;DHT22;43465;50.728;4.160;2023-06-10T07:39:04;26.00;72.40
57636;DHT22;43465;50.728;4.160;2023-06-10T07:41:30;26.10;72.80
57636;DHT22;43465;50.728;4.160;2023-06-10T07:43:56;26.10;72.70
57636;DHT22;43465;50.728;4.160;2023-06-10T07:46:22;26.10;72.20
57636;DHT22;43465;50.728;4.160;2023-06-10T07:48:48;26.20;72.90
57636;DHT22;43465;50.728;4.160;2023-06-10T07:51:15;26.20;73.60
57636;DHT22;43465;50.728;4.160;2023-06-10T07:53:41;26.40;71.80
57636;DHT22;43465;50.728;4.160;2023-06-10T07:56:07;26.40;73.30
57636;DHT22;43465;50.728;4.160;2023-06-10T07:58:32;26.40;71.80
57636;DHT22;43465;50.728;4.160;2023-06-10T08:00:58;26.40;70.70
57636;DHT22;43465;50.728;4.160;2023-06-10T08:03:23;26.50;72.30
57636;DHT22;43465;50.728;4.160;2023-06-10T08:05:49;26.60;72.50
57636;DHT22;43465;50.728;4.160;2023-06-10T08:08:15;26.70;71.50
57636;DHT22;43465;50.728;4.160;2023-06-10T08:10:40;26.80;72.50
57636;DHT22;43465;50.728;4.160;2023-06-10T08:13:07;26.80;73.40
57636;DHT22;43465;50.728;4.160;2023-06-10T08:15:33;26.90;73.70
57636;DHT22;43465;50.728;4.160;2023-06-10T08:17:58;27.00;72.00
57636;DHT22;43465;50.728;4.160;2023-06-10T08:20:24;27.00;71.50
57636;DHT22;43465;50.728;4.160;2023-06-10T08:22:50;27.10;71.10
57636;DHT22;43465;50.728;4.160;2023-06-10T08:25:16;27.20;72.30
57636;DHT22;43465;50.728;4.160;2023-06-10T08:27:41;27.30;71.80
57636;DHT22;43465;50.728;4.160;2023-06-10T08:30:07;27.30;69.20
57636;DHT22;43465;50.728;4.160;2023-06-10T08:32:35;27.40;71.50
57636;DHT22;43465;50.728;4.160;2023-06-10T08:35:01;27.40;68.50
57636;DHT22;43465;50.728;4.160;2023-06-10T08:37:26;27.60;70.40
57636;DHT22;43465;50.728;4.160;2023-06-10T08:39:52;27.50;67.60
57636;DHT22;43465;50.728;4.160;2023-06-10T08:44:54;27.70;69.90
57636;DHT22;43465;50.728;4.160;2023-06-10T08:47:22;27.80;69.90
57636;DHT22;43465;50.728;4.160;2023-06-10T08:49:48;27.90;70.90
57636;DHT22;43465;50.728;4.160;2023-06-10T08:52:19;27.90;67.70
57636;DHT22;43465;50.728;4.160;2023-06-10T08:55:00;27.90;68.30
57636;DHT22;43465;50.728;4.160;2023-06-10T08:57:30;28.10;69.30
57636;DHT22;43465;50.728;4.160;2023-06-10T08:59:57;28.30;69.70
57636;DHT22;43465;50.728;4.160;2023-06-10T09:02:27;28.40;69.80
57636;DHT22;43465;50.728;4.160;2023-06-10T09:04:53;28.40;67.80
57636;DHT22;43465;50.728;4.160;2023-06-10T09:07:21;28.60;68.10
57636;DHT22;43465;50.728;4.160;2023-06-10T09:09:48;28.60;67.10
57636;DHT22;43465;50.728;4.160;2023-06-10T09:12:14;28.60;67.10
57636;DHT22;43465;50.728;4.160;2023-06-10T09:14:41;28.60;66.50
57636;DHT22;43465;50.728;4.160;2023-06-10T09:17:07;28.70;66.80
57636;DHT22;43465;50.728;4.160;2023-06-10T09:19:33;28.60;67.40
57636;DHT22;43465;50.728;4.160;2023-06-10T09:21:59;28.70;68.30
57636;DHT22;43465;50.728;4.160;2023-06-10T09:24:25;28.90;68.30
57636;DHT22;43465;50.728;4.160;2023-06-10T09:27:02;28.90;68.40
57636;DHT22;43465;50.728;4.160;2023-06-10T09:29:28;29.00;69.40
57636;DHT22;43465;50.728;4.160;2023-06-10T09:31:54;29.00;66.40
57636;DHT22;43465;50.728;4.160;2023-06-10T09:34:20;29.10;64.80
57636;DHT22;43465;50.728;4.160;2023-06-10T09:36:50;29.30;64.10
57636;DHT22;43465;50.728;4.160;2023-06-10T09:39:17;29.40;65.00
57636;DHT22;43465;50.728;4.160;2023-06-10T09:41:45;29.40;65.90
57636;DHT22;43465;50.728;4.160;2023-06-10T09:44:18;29.50;66.30
57636;DHT22;43465;50.728;4.160;2023-06-10T09:46:48;29.50;62.90
57636;DHT22;43465;50.728;4.160;2023-06-10T09:49:15;29.60;64.90
57636;DHT22;43465;50.728;4.160;2023-06-10T09:51:54;29.70;63.40
57636;DHT22;43465;50.728;4.160;2023-06-10T09:54:20;29.80;63.70
57636;DHT22;43465;50.728;4.160;2023-06-10T09:56:48;29.90;64.50
57636;DHT22;43465;50.728;4.160;2023-06-10T09:59:14;29.90;64.50
57636;DHT22;43465;50.728;4.160;2023-06-10T10:01:40;30.00;63.00
57636;DHT22;43465;50.728;4.160;2023-06-10T10:04:05;30.10;62.10
57636;DHT22;43465;50.728;4.160;2023-06-10T10:06:31;30.10;62.80
57636;DHT22;43465;50.728;4.160;2023-06-10T10:08:57;30.20;62.80
57636;DHT22;43465;50.728;4.160;2023-06-10T10:11:23;30.10;59.90
57636;DHT22;43465;50.728;4.160;2023-06-10T10:13:53;30.10;61.90
57636;DHT22;43465;50.728;4.160;2023-06-10T10:16:30;30.20;62.00
57636;DHT22;43465;50.728;4.160;2023-06-10T10:19:04;30.30;63.10
57636;DHT22;43465;50.728;4.160;2023-06-10T10:21:37;30.20;62.90
57636;DHT22;43465;50.728;4.160;2023-06-10T10:24:20;30.20;60.10
57636;DHT22;43465;50.728;4.160;2023-06-10T10:26:48;30.30;60.80
57636;DHT22;43465;50.728;4.160;2023-06-10T10:29:16;30.30;58.40
57636;DHT22;43465;50.728;4.160;2023-06-10T10:31:43;30.40;60.70
57636;DHT22;43465;50.728;4.160;2023-06-10T10:34:15;30.50;59.60
57636;DHT22;43465;50.728;4.160;2023-06-10T10:36:42;30.50;59.30
57636;DHT22;43465;50.728;4.160;2023-06-10T10:39:08;30.50;61.60
57636;DHT22;43465;50.728;4.160;2023-06-10T10:41:37;30.50;58.60
57636;DHT22;43465;50.728;4.160;2023-06-10T10:44:03;30.70;61.30
57636;DHT22;43465;50.728;4.160;2023-06-10T10:46:45;30.50;57.80
57636;DHT22;43465;50.728;4.160;2023-06-10T10:49:14;30.40;57.20
57636;DHT22;43465;50.728;4.160;2023-06-10T10:52:00;30.50;57.00
57636;DHT22;43465;50.728;4.160;2023-06-10T10:54:31;30.60;56.40
57636;DHT22;43465;50.728;4.160;2023-06-10T11:02:43;30.70;55.40
57636;DHT22;43465;50.728;4.160;2023-06-10T11:05:11;30.50;54.80
57636;DHT22;43465;50.728;4.160;2023-06-10T11:07:37;30.40;55.50
57636;DHT22;43465;50.728;4.160;2023-06-10T11:10:13;30.30;55.10
57636;DHT22;43465;50.728;4.160;2023-06-10T11:15:24;30.20;56.40
57636;DHT22;43465;50.728;4.160;2023-06-10T11:31:24;30.50;58.10
57636;DHT22;43465;50.728;4.160;2023-06-10T11:33:56;30.80;58.40
57636;DHT22;43465;50.728;4.160;2023-06-10T11:36:23;30.90;53.80
57636;DHT22;43465;50.728;4.160;2023-06-10T11:38:51;31.10;54.40
57636;DHT22;43465;50.728;4.160;2023-06-10T11:41:18;31.20;53.50
57636;DHT22;43465;50.728;4.160;2023-06-10T11:43:44;31.10;53.80
57636;DHT22;43465;50.728;4.160;2023-06-10T11:46:14;31.10;54.60
57636;DHT22;43465;50.728;4.160;2023-06-10T11:48:54;31.10;52.90
57636;DHT22;43465;50.728;4.160;2023-06-10T11:51:19;31.10;53.00
57636;DHT22;43465;50.728;4.160;2023-06-10T11:53:49;31.20;53.80
57636;DHT22;43465;50.728;4.160;2023-06-10T11:56:22;31.40;53.90
57636;DHT22;43465;50.728;4.160;2023-06-10T11:58:55;31.40;52.80
57636;DHT22;43465;50.728;4.160;2023-06-10T12:01:25;31.40;52.50
57636;DHT22;43465;50.728;4.160;2023-06-10T12:04:06;31.50;52.50
57636;DHT22;43465;50.728;4.160;2023-06-10T12:06:41;31.60;52.90
57636;DHT22;43465;50.728;4.160;2023-06-10T12:09:22;31.60;52.00
57636;DHT22;43465;50.728;4.160;2023-06-10T12:11:54;31.60;52.90
57636;DHT22;43465;50.728;4.160;2023-06-10T12:17:05;31.60;51.50
57636;DHT22;43465;50.728;4.160;2023-06-10T12:19:30;31.70;52.60
57636;DHT22;43465;50.728;4.160;2023-06-10T12:22:00;31.60;50.40
57636;DHT22;43465;50.728;4.160;2023-06-10T12:24:26;31.50;51.40
57636;DHT22;43465;50.728;4.160;2023-06-10T12:26:54;31.40;50.80
57636;DHT22;43465;50.728;4.160;2023-06-10T12:29:23;31.40;51.80
57636;DHT22;43465;50.728;4.160;2023-06-10T12:34:39;31.50;53.40
57636;DHT22;43465;50.728;4.160;2023-06-10T12:37:09;31.50;53.20
57636;DHT22;43465;50.728;4.160;2023-06-10T12:39:39;31.60;54.60
57636;DHT22;43465;50.728;4.160;2023-06-10T12:42:05;31.70;53.00
57636;DHT22;43465;50.728;4.160;2023-06-10T12:44:36;31.70;53.40
57636;DHT22;43465;50.728;4.160;2023-06-10T12:47:10;31.70;53.80
57636;DHT22;43465;50.728;4.160;2023-06-10T12:49:38;31.60;53.10
57636;DHT22;43465;50.728;4.160;2023-06-10T12:52:05;31.60;54.00
57636;DHT22;43465;50.728;4.160;2023-06-10T12:54:30;31.40;53.20
57636;DHT22;43465;50.728;4.160;2023-06-10T12:56:56;31.10;54.10
57636;DHT22;43465;50.728;4.160;2023-06-10T12:59:22;31.10;55.20
57636;DHT22;43465;50.728;4.160;2023-06-10T13:01:53;31.10;55.00
57636;DHT22;43465;50.728;4.160;2023-06-10T13:04:19;31.10;54.30
57636;DHT22;43465;50.728;4.160;2023-06-10T13:06:45;31.20;54.40
57636;DHT22;43465;50.728;4.160;2023-06-10T13:09:12;31.40;56.00
57636;DHT22;43465;50.728;4.160;2023-06-10T13:11:38;31.50;56.20
57636;DHT22;43465;50.728;4.160;2023-06-10T13:14:04;31.60;55.70
57636;DHT22;43465;50.728;4.160;2023-06-10T13:16:32;31.70;54.70
57636;DHT22;43465;50.728;4.160;2023-06-10T13:18:58;31.80;52.90
57636;DHT22;43465;50.728;4.160;2023-06-10T13:21:23;32.00;54.60
57636;DHT22;43465;50.728;4.160;2023-06-10T13:23:49;32.10;54.40
57636;DHT22;43465;50.728;4.160;2023-06-10T13:26:15;32.10;54.70
57636;DHT22;43465;50.728;4.160;2023-06-10T13:28:43;32.00;52.30
57636;DHT22;43465;50.728;4.160;2023-06-10T13:31:08;32.00;52.70
57636;DHT22;43465;50.728;4.160;2023-06-10T13:33:34;32.00;52.60
57636;DHT22;43465;50.728;4.160;2023-06-10T13:36:00;32.00;53.00
57636;DHT22;43465;50.728;4.160;2023-06-10T13:38:25;32.00;54.80
57636;DHT22;43465;50.728;4.160;2023-06-10T13:40:51;32.20;53.70
57636;DHT22;43465;50.728;4.160;2023-06-10T13:43:16;32.20;53.90
57636;DHT22;43465;50.728;4.160;2023-06-10T13:45:42;32.40;55.00
57636;DHT22;43465;50.728;4.160;2023-06-10T13:48:08;32.50;52.30
57636;DHT22;43465;50.728;4.160;2023-06-10T13:50:34;32.60;52.20
57636;DHT22;43465;50.728;4.160;2023-06-10T13:53:00;32.70;51.70
57636;DHT22;43465;50.728;4.160;2023-06-10T13:55:25;32.60;53.80
57636;DHT22;43465;50.728;4.160;2023-06-10T13:57:51;32.60;54.30
57636;DHT22;43465;50.728;4.160;2023-06-10T14:00:17;32.70;53.10
57636;DHT22;43465;50.728;4.160;2023-06-10T14:02:43;32.80;53.10
57636;DHT22;43465;50.728;4.160;2023-06-10T14:05:08;32.80;51.60
57636;DHT22;43465;50.728;4.160;2023-06-10T14:07:34;32.90;51.70
57636;DHT22;43465;50.728;4.160;2023-06-10T14:10:00;33.20;51.70
57636;DHT22;43465;50.728;4.160;2023-06-10T14:12:26;33.40;50.60
57636;DHT22;43465;50.728;4.160;2023-06-10T14:14:52;33.70;50.40
57636;DHT22;43465;50.728;4.160;2023-06-10T14:17:17;34.00;49.80
57636;DHT22;43465;50.728;4.160;2023-06-10T14:19:43;34.10;49.50
57636;DHT22;43465;50.728;4.160;2023-06-10T14:22:08;33.70;49.20
57636;DHT22;43465;50.728;4.160;2023-06-10T14:24:35;33.40;50.80
57636;DHT22;43465;50.728;4.160;2023-06-10T14:27:01;33.20;50.20
57636;DHT22;43465;50.728;4.160;2023-06-10T14:29:27;33.10;50.60
57636;DHT22;43465;50.728;4.160;2023-06-10T14:31:55;33.00;50.60
57636;DHT22;43465;50.728;4.160;2023-06-10T14:34:21;32.70;51.30
57636;DHT22;43465;50.728;4.160;2023-06-10T14:36:48;33.50;50.80
57636;DHT22;43465;50.728;4.160;2023-06-10T14:39:14;34.50;48.90
57636;DHT22;43465;50.728;4.160;2023-06-10T14:41:40;35.90;47.40
57636;DHT22;43465;50.728;4.160;2023-06-10T14:44:05;37.20;46.20
57636;DHT22;43465;50.728;4.160;2023-06-10T14:46:31;38.10;44.10
57636;DHT22;43465;50.728;4.160;2023-06-10T14:48:57;38.70;42.30
57636;DHT22;43465;50.728;4.160;2023-06-10T14:51:24;39.40;42.10
57636;DHT22;43465;50.728;4.160;2023-06-10T14:53:50;39.90;41.00
57636;DHT22;43465;50.728;4.160;2023-06-10T14:56:16;40.60;40.80
57636;DHT22;43465;50.728;4.160;2023-06-10T14:58:41;40.90;38.90
57636;DHT22;43465;50.728;4.160;2023-06-10T15:01:07;40.60;39.10
57636;DHT22;43465;50.728;4.160;2023-06-10T15:03:33;41.30;39.50
57636;DHT22;43465;50.728;4.160;2023-06-10T15:05:58;42.30;39.50
57636;DHT22;43465;50.728;4.160;2023-06-10T15:08:26;42.70;38.10
57636;DHT22;43465;50.728;4.160;2023-06-10T15:10:53;42.70;37.10
57636;DHT22;43465;50.728;4.160;2023-06-10T15:13:19;42.80;36.90
57636;DHT22;43465;50.728;4.160;2023-06-10T15:15:45;42.00;36.40
57636;DHT22;43465;50.728;4.160;2023-06-10T15:18:11;40.40;38.40
57636;DHT22;43465;50.728;4.160;2023-06-10T15:20:37;39.30;38.60
57636;DHT22;43465;50.728;4.160;2023-06-10T15:23:02;39.50;40.00
57636;DHT22;43465;50.728;4.160;2023-06-10T15:25:28;39.70;38.30
57636;DHT22;43465;50.728;4.160;2023-06-10T15:27:53;39.30;40.60
57636;DHT22;43465;50.728;4.160;2023-06-10T15:30:20;39.40;39.00
57636;DHT22;43465;50.728;4.160;2023-06-10T15:32:45;38.00;39.20
57636;DHT22;43465;50.728;4.160;2023-06-10T15:35:11;37.30;40.90
57636;DHT22;43465;50.728;4.160;2023-06-10T15:37:37;36.60;42.90
57636;DHT22;43465;50.728;4.160;2023-06-10T15:40:03;36.40;42.70
57636;DHT22;43465;50.728;4.160;2023-06-10T15:42:29;37.10;42.90
57636;DHT22;43465;50.728;4.160;2023-06-10T15:44:54;38.20;41.10
57636;DHT22;43465;50.728;4.160;2023-06-10T15:47:20;38.10;38.90
57636;DHT22;43465;50.728;4.160;2023-06-10T15:49:46;38.00;39.40
57636;DHT22;43465;50.728;4.160;2023-06-10T15:52:11;37.30;40.30
57636;DHT22;43465;50.728;4.160;2023-06-10T15:54:37;36.60;42.40
57636;DHT22;43465;50.728;4.160;2023-06-10T15:57:03;36.00;42.50
57636;DHT22;43465;50.728;4.160;2023-06-10T15:59:30;35.50;43.50
57636;DHT22;43465;50.728;4.160;2023-06-10T16:01:55;35.00;43.50